Time;durP1;ratioP1;P1;durP2;ratioP2;P2;SDS_P1;SDS_P2;PMS_P1;PMS_P2;Temp;Humidity;BMP_temperature;BMP_pressure;BME280_temperature;BME280_humidity;BME280_pressure;Samples;Min_cycle;Max_cycle;Signal;HPM_P1;HPM_P2
2023/06/11 00:01:43;;;;;;;;;;;24.10;44.20;;;;;;1531722;76;712;-58
2023/06/11 00:03:46;;;;;;;;;;;24.20;44.30;;;;;;1539358;76;784;-59
2023/06/11 00:05:48;;;;;;;;;;;24.20;44.20;;;;;;1547861;76;761;-58
2023/06/11 00:07:50;;;;;;;;;;;24.10;44.30;;;;;;1526400;76;1956;-59
2023/06/11 00:09:53;;;;;;;;;;;24.10;44.20;;;;;;1536764;76;1647;-58
2023/06/11 00:11:54;;;;;;;;;;;24.10;44.20;;;;;;1543630;75;726;-60
2023/06/11 00:13:56;;;;;;;;;;;24.10;44.30;;;;;;1537868;76;786;-58
2023/06/11 00:15:59;;;;;;;;;;;24.20;44.30;;;;;;1544004;76;857;-59
2023/06/11 00:18:02;;;;;;;;;;;24.20;44.30;;;;;;1526398;76;1153;-60
2023/06/11 00:20:08;;;;;;;;;;;24.20;44.30;;;;;;1538229;76;731;-58
2023/06/11 00:22:08;;;;;;;;;;;24.10;44.30;;;;;;1545309;76;1506;-58
2023/06/11 00:24:11;;;;;;;;;;;24.10;44.20;;;;;;1541680;76;1530;-59
2023/06/11 00:26:13;;;;;;;;;;;24.10;44.30;;;;;;1527530;76;821;-58
2023/06/11 00:28:15;;;;;;;;;;;24.10;44.30;;;;;;1537963;76;1952;-59
2023/06/11 00:30:17;;;;;;;;;;;24.10;44.30;;;;;;1540098;76;774;-58
2023/06/11 00:32:19;;;;;;;;;;;24.00;44.20;;;;;;1532894;76;754;-58
2023/06/11 00:34:21;;;;;;;;;;;24.00;44.20;;;;;;1536131;76;779;-58
2023/06/11 00:36:26;;;;;;;;;;;24.10;44.40;;;;;;1540366;76;702;-58
2023/06/11 00:38:28;;;;;;;;;;;24.10;44.40;;;;;;1543554;76;1705;-58
2023/06/11 00:40:31;;;;;;;;;;;24.10;44.30;;;;;;1536945;76;760;-58
2023/06/11 00:42:33;;;;;;;;;;;24.10;44.40;;;;;;1543116;76;722;-60
2023/06/11 00:44:36;;;;;;;;;;;24.10;44.30;;;;;;1534309;76;800;-59
2023/06/11 00:46:38;;;;;;;;;;;24.10;44.30;;;;;;1540522;76;741;-58
2023/06/11 00:48:40;;;;;;;;;;;24.10;44.30;;;;;;1543371;76;1947;-58
2023/06/11 00:50:48;;;;;;;;;;;24.10;44.40;;;;;;1548158;76;727;-58
2023/06/11 00:52:50;;;;;;;;;;;24.10;44.30;;;;;;1538373;76;1538;-58
2023/06/11 00:54:52;;;;;;;;;;;24.10;44.30;;;;;;1542634;76;789;-59
2023/06/11 00:56:54;;;;;;;;;;;24.10;44.30;;;;;;1543903;76;674;-58
2023/06/11 00:58:57;;;;;;;;;;;24.10;44.30;;;;;;1545440;76;1108;-57
2023/06/11 01:00:59;;;;;;;;;;;24.10;44.30;;;;;;1550753;76;774;-58
2023/06/11 01:03:02;;;;;;;;;;;24.10;44.30;;;;;;1553027;76;750;-59
2023/06/11 01:05:04;;;;;;;;;;;24.10;44.30;;;;;;1546248;76;1923;-58
2023/06/11 01:07:07;;;;;;;;;;;24.10;44.30;;;;;;1548897;76;1540;-58
2023/06/11 01:09:09;;;;;;;;;;;24.10;44.30;;;;;;1546596;76;1943;-58
2023/06/11 01:11:13;;;;;;;;;;;24.10;44.30;;;;;;1559180;75;733;-58
2023/06/11 01:13:15;;;;;;;;;;;24.00;44.20;;;;;;1541792;76;1121;-58
2023/06/11 01:15:17;;;;;;;;;;;24.10;44.30;;;;;;1552699;76;884;-58
2023/06/11 01:17:23;;;;;;;;;;;24.10;44.30;;;;;;1542497;76;1103;-58
2023/06/11 01:19:28;;;;;;;;;;;24.10;44.40;;;;;;1541878;76;1513;-58
2023/06/11 01:21:33;;;;;;;;;;;24.10;44.40;;;;;;1542904;76;1788;-58
2023/06/11 01:23:44;;;;;;;;;;;24.00;44.20;;;;;;1545878;76;1810;-58
2023/06/11 01:25:56;;;;;;;;;;;24.10;44.40;;;;;;1546631;76;1101;-58
2023/06/11 01:28:11;;;;;;;;;;;24.10;44.40;;;;;;1537209;76;1952;-58
2023/06/11 01:30:20;;;;;;;;;;;24.10;44.40;;;;;;1543407;76;758;-58
2023/06/11 01:32:23;;;;;;;;;;;24.10;44.40;;;;;;1559686;76;710;-58
2023/06/11 01:34:25;;;;;;;;;;;24.00;44.30;;;;;;1555434;76;1539;-58
2023/06/11 01:36:29;;;;;;;;;;;24.10;44.40;;;;;;1549287;76;696;-58
2023/06/11 01:38:41;;;;;;;;;;;24.00;44.30;;;;;;1539889;76;1537;-58
2023/06/11 01:40:35;;;;;;;;;;;24.10;44.40;;;;;;1544665;76;1629;-58
2023/06/11 01:42:36;;;;;;;;;;;24.00;44.30;;;;;;1547256;76;716;-58
2023/06/11 01:44:38;;;;;;;;;;;24.00;44.30;;;;;;1545038;76;762;-57
2023/06/11 01:46:40;;;;;;;;;;;24.10;44.40;;;;;;1539997;76;897;-59
2023/06/11 01:48:42;;;;;;;;;;;24.10;44.40;;;;;;1545276;76;1937;-58
2023/06/11 01:50:44;;;;;;;;;;;24.10;44.40;;;;;;1540926;76;880;-58
2023/06/11 01:52:46;;;;;;;;;;;24.00;44.20;;;;;;1525282;76;793;-57
2023/06/11 01:54:48;;;;;;;;;;;24.10;44.40;;;;;;1544738;76;677;-58
2023/06/11 01:56:50;;;;;;;;;;;24.10;44.40;;;;;;1539100;76;710;-58
2023/06/11 01:58:52;;;;;;;;;;;24.10;44.40;;;;;;1537399;76;1173;-59
2023/06/11 02:00:53;;;;;;;;;;;24.10;44.40;;;;;;1538089;76;782;-58
2023/06/11 02:02:55;;;;;;;;;;;24.10;44.40;;;;;;1531309;76;1308;-58
2023/06/11 02:04:58;;;;;;;;;;;24.10;44.40;;;;;;1532184;76;776;-58
2023/06/11 02:07:00;;;;;;;;;;;24.00;44.30;;;;;;1533868;76;683;-58
2023/06/11 02:09:02;;;;;;;;;;;24.00;44.30;;;;;;1526469;76;1952;-58
2023/06/11 02:11:04;;;;;;;;;;;24.10;44.40;;;;;;1530430;75;786;-58
2023/06/11 02:13:06;;;;;;;;;;;24.10;44.40;;;;;;1535831;76;795;-58
2023/06/11 02:15:08;;;;;;;;;;;24.10;44.40;;;;;;1540418;76;791;-58
2023/06/11 02:17:13;;;;;;;;;;;24.10;44.40;;;;;;1537872;76;1521;-58
2023/06/11 02:19:15;;;;;;;;;;;24.00;44.20;;;;;;1532309;76;886;-58
2023/06/11 02:21:17;;;;;;;;;;;24.00;44.20;;;;;;1527485;76;766;-58
2023/06/11 02:23:18;;;;;;;;;;;24.10;44.40;;;;;;1537042;76;728;-58
2023/06/11 02:25:20;;;;;;;;;;;24.10;44.40;;;;;;1545360;76;737;-59
2023/06/11 02:27:22;;;;;;;;;;;24.10;44.40;;;;;;1543256;76;1115;-57
2023/06/11 02:29:24;;;;;;;;;;;24.10;44.40;;;;;;1532790;76;1914;-58
2023/06/11 02:31:26;;;;;;;;;;;24.00;44.30;;;;;;1539281;76;1537;-60
2023/06/11 02:33:28;;;;;;;;;;;24.10;44.40;;;;;;1535248;76;653;-59
2023/06/11 02:35:30;;;;;;;;;;;24.10;44.40;;;;;;1545867;76;709;-58
2023/06/11 02:37:31;;;;;;;;;;;24.10;44.40;;;;;;1531212;76;1114;-60
2023/06/11 02:39:33;;;;;;;;;;;24.10;44.40;;;;;;1537494;76;729;-58
2023/06/11 02:41:35;;;;;;;;;;;24.10;44.40;;;;;;1533116;76;812;-58
2023/06/11 02:43:37;;;;;;;;;;;24.10;44.40;;;;;;1529524;76;729;-59
2023/06/11 02:45:40;;;;;;;;;;;24.00;44.20;;;;;;1536008;76;1303;-58
2023/06/11 02:47:41;;;;;;;;;;;24.00;44.30;;;;;;1529108;76;1146;-58
2023/06/11 02:49:43;;;;;;;;;;;24.10;44.40;;;;;;1523505;76;1955;-60
2023/06/11 02:51:45;;;;;;;;;;;24.10;44.40;;;;;;1505927;77;799;-59
2023/06/11 02:53:47;;;;;;;;;;;24.10;44.40;;;;;;1502581;77;728;-60
2023/06/11 02:55:49;;;;;;;;;;;24.00;44.30;;;;;;1504497;77;844;-58
2023/06/11 02:57:51;;;;;;;;;;;24.10;44.40;;;;;;1509242;77;1178;-58
2023/06/11 02:59:53;;;;;;;;;;;24.10;44.40;;;;;;1520912;77;1522;-58
2023/06/11 03:01:55;;;;;;;;;;;24.10;44.40;;;;;;1519496;77;734;-59
2023/06/11 03:03:56;;;;;;;;;;;24.10;44.50;;;;;;1514281;77;846;-59
2023/06/11 03:05:58;;;;;;;;;;;24.10;44.40;;;;;;1509313;77;685;-58
2023/06/11 03:08:00;;;;;;;;;;;24.10;44.40;;;;;;1531085;77;1153;-59
2023/06/11 03:10:02;;;;;;;;;;;24.00;44.30;;;;;;1506056;77;1939;-58
2023/06/11 03:12:05;;;;;;;;;;;24.10;44.40;;;;;;1517409;77;703;-59
2023/06/11 03:14:07;;;;;;;;;;;24.10;44.40;;;;;;1510907;77;1491;-58
2023/06/11 03:16:09;;;;;;;;;;;24.00;44.30;;;;;;1521665;77;716;-57
2023/06/11 03:18:11;;;;;;;;;;;24.10;44.40;;;;;;1516164;77;1125;-58
2023/06/11 03:20:13;;;;;;;;;;;24.00;44.30;;;;;;1509856;77;687;-59
2023/06/11 03:22:14;;;;;;;;;;;24.00;44.30;;;;;;1519758;77;741;-58
2023/06/11 03:24:16;;;;;;;;;;;24.10;44.40;;;;;;1510897;77;793;-59
2023/06/11 03:26:18;;;;;;;;;;;24.00;44.30;;;;;;1522951;77;735;-59
2023/06/11 03:28:20;;;;;;;;;;;24.10;44.50;;;;;;1516445;77;1473;-60
2023/06/11 03:30:22;;;;;;;;;;;24.10;44.40;;;;;;1522576;77;1937;-58
2023/06/11 03:32:24;;;;;;;;;;;24.00;44.30;;;;;;1520475;77;728;-58
2023/06/11 03:34:26;;;;;;;;;;;24.10;44.40;;;;;;1520957;77;655;-59
2023/06/11 03:36:28;;;;;;;;;;;24.00;44.40;;;;;;1504871;77;672;-58
2023/06/11 03:38:29;;;;;;;;;;;24.10;44.40;;;;;;1521937;77;1171;-58
2023/06/11 03:40:31;;;;;;;;;;;24.00;44.30;;;;;;1508705;77;728;-58
2023/06/11 03:42:33;;;;;;;;;;;24.00;44.30;;;;;;1515897;77;1637;-58
2023/06/11 03:44:35;;;;;;;;;;;24.00;44.30;;;;;;1509757;77;713;-58
2023/06/11 03:46:37;;;;;;;;;;;24.10;44.40;;;;;;1512861;77;765;-58
2023/06/11 03:48:39;;;;;;;;;;;24.00;44.40;;;;;;1512921;76;1961;-58
2023/06/11 03:50:41;;;;;;;;;;;24.00;44.40;;;;;;1546836;76;608;-58
2023/06/11 03:52:42;;;;;;;;;;;24.10;44.40;;;;;;1533712;76;963;-57
2023/06/11 03:54:44;;;;;;;;;;;24.00;44.30;;;;;;1538788;76;935;-58
2023/06/11 03:56:46;;;;;;;;;;;24.00;44.20;;;;;;1530447;76;1527;-58
2023/06/11 03:58:48;;;;;;;;;;;24.10;44.40;;;;;;1538807;76;1177;-60
2023/06/11 04:00:50;;;;;;;;;;;24.10;44.40;;;;;;1527453;76;709;-57
2023/06/11 04:02:53;;;;;;;;;;;24.10;44.30;;;;;;1531392;76;705;-61
2023/06/11 04:04:55;;;;;;;;;;;24.00;44.20;;;;;;1529340;76;672;-60
2023/06/11 04:06:57;;;;;;;;;;;24.10;44.40;;;;;;1542794;76;684;-60
2023/06/11 04:08:59;;;;;;;;;;;24.10;44.40;;;;;;1527993;76;1949;-60
2023/06/11 04:11:01;;;;;;;;;;;24.10;44.40;;;;;;1543567;75;799;-61
2023/06/11 04:13:03;;;;;;;;;;;24.00;44.30;;;;;;1533321;76;850;-60
2023/06/11 04:15:06;;;;;;;;;;;24.10;44.40;;;;;;1548234;76;671;-60
2023/06/11 04:17:07;;;;;;;;;;;24.00;44.30;;;;;;1535268;76;809;-60
2023/06/11 04:19:09;;;;;;;;;;;24.10;44.40;;;;;;1541400;76;1162;-60
2023/06/11 04:21:11;;;;;;;;;;;24.00;44.30;;;;;;1525641;76;705;-60
2023/06/11 04:23:13;;;;;;;;;;;24.10;44.40;;;;;;1533472;76;1567;-62
2023/06/11 04:25:16;;;;;;;;;;;24.00;44.20;;;;;;1528824;76;741;-60
2023/06/11 04:27:20;;;;;;;;;;;24.00;44.20;;;;;;1544429;76;1133;-60
2023/06/11 04:29:23;;;;;;;;;;;24.00;44.30;;;;;;1538076;76;1939;-64
2023/06/11 04:31:26;;;;;;;;;;;24.00;44.20;;;;;;1544081;76;696;-61
2023/06/11 04:33:36;;;;;;;;;;;24.10;44.40;;;;;;1530419;76;752;-62
2023/06/11 04:35:38;;;;;;;;;;;24.00;44.30;;;;;;1542708;76;888;-60
2023/06/11 04:37:40;;;;;;;;;;;24.00;44.30;;;;;;1545144;76;1631;-60
2023/06/11 04:39:42;;;;;;;;;;;24.10;44.40;;;;;;1531061;76;720;-60
2023/06/11 04:41:46;;;;;;;;;;;24.00;44.30;;;;;;1535909;76;700;-60
2023/06/11 04:43:48;;;;;;;;;;;24.00;44.40;;;;;;1532992;76;691;-61
2023/06/11 04:45:56;;;;;;;;;;;24.00;44.30;;;;;;1540272;76;820;-60
2023/06/11 04:48:03;;;;;;;;;;;24.00;44.30;;;;;;1541530;76;1158;-61
2023/06/11 04:50:04;;;;;;;;;;;24.00;44.40;;;;;;1543939;76;1924;-60
2023/06/11 04:52:06;;;;;;;;;;;24.00;44.40;;;;;;1533443;76;1325;-62
2023/06/11 04:54:08;;;;;;;;;;;24.00;44.40;;;;;;1539071;76;743;-61
2023/06/11 04:56:10;;;;;;;;;;;24.00;44.40;;;;;;1541567;76;803;-62
2023/06/11 04:58:12;;;;;;;;;;;24.00;44.40;;;;;;1545413;76;1174;-60
2023/06/11 05:00:14;;;;;;;;;;;24.00;44.40;;;;;;1537328;76;829;-60
2023/06/11 05:02:17;;;;;;;;;;;24.00;44.40;;;;;;1528383;76;837;-60
2023/06/11 05:04:19;;;;;;;;;;;24.10;44.50;;;;;;1539113;76;708;-60
2023/06/11 05:06:23;;;;;;;;;;;24.00;44.40;;;;;;1538067;76;1492;-60
2023/06/11 05:08:25;;;;;;;;;;;24.00;44.40;;;;;;1534063;76;1141;-62
2023/06/11 05:10:27;;;;;;;;;;;24.00;44.40;;;;;;1541945;75;1941;-64
2023/06/11 05:12:29;;;;;;;;;;;24.10;44.50;;;;;;1540304;76;739;-62
2023/06/11 05:14:30;;;;;;;;;;;24.00;44.40;;;;;;1533785;76;700;-59
2023/06/11 05:16:33;;;;;;;;;;;24.00;44.40;;;;;;1539901;76;964;-60
2023/06/11 05:18:35;;;;;;;;;;;24.00;44.40;;;;;;1538766;76;1139;-61
2023/06/11 05:20:37;;;;;;;;;;;24.10;44.50;;;;;;1541931;76;1484;-60
2023/06/11 05:22:39;;;;;;;;;;;24.00;44.40;;;;;;1533748;76;690;-60
2023/06/11 05:24:42;;;;;;;;;;;24.00;44.30;;;;;;1535465;76;722;-60
2023/06/11 05:26:44;;;;;;;;;;;24.00;44.40;;;;;;1532513;76;768;-58
2023/06/11 05:28:46;;;;;;;;;;;24.00;44.40;;;;;;1528888;76;1155;-61
2023/06/11 05:30:49;;;;;;;;;;;24.10;44.50;;;;;;1543726;76;1929;-59
2023/06/11 05:32:53;;;;;;;;;;;24.00;44.40;;;;;;1533490;76;725;-58
2023/06/11 05:34:56;;;;;;;;;;;24.10;44.50;;;;;;1542614;76;1407;-60
2023/06/11 05:36:57;;;;;;;;;;;24.00;44.40;;;;;;1530611;76;745;-61
2023/06/11 05:38:59;;;;;;;;;;;24.00;44.40;;;;;;1548784;76;1098;-62
2023/06/11 05:41:02;;;;;;;;;;;24.00;44.40;;;;;;1525404;76;775;-61
2023/06/11 05:43:04;;;;;;;;;;;24.10;44.40;;;;;;1540041;76;745;-60
2023/06/11 05:45:07;;;;;;;;;;;24.10;44.50;;;;;;1547240;76;762;-61
2023/06/11 05:47:08;;;;;;;;;;;24.10;44.50;;;;;;1542189;76;728;-61
2023/06/11 05:49:10;;;;;;;;;;;24.00;44.30;;;;;;1540052;76;1468;-61
2023/06/11 05:51:12;;;;;;;;;;;24.00;44.20;;;;;;1539846;76;1926;-58
2023/06/11 05:53:14;;;;;;;;;;;24.10;44.40;;;;;;1539501;76;731;-60
2023/06/11 05:55:16;;;;;;;;;;;24.10;44.40;;;;;;1549391;76;706;-58
2023/06/11 05:57:19;;;;;;;;;;;24.00;44.30;;;;;;1543727;76;1170;-61
2023/06/11 05:59:21;;;;;;;;;;;24.10;44.40;;;;;;1539673;76;1810;-60
2023/06/11 06:01:23;;;;;;;;;;;24.10;44.40;;;;;;1547337;76;687;-59
2023/06/11 06:03:26;;;;;;;;;;;24.10;44.40;;;;;;1554105;76;813;-62
2023/06/11 06:05:28;;;;;;;;;;;24.10;44.40;;;;;;1542455;76;677;-62
2023/06/11 06:07:30;;;;;;;;;;;24.10;44.40;;;;;;1551918;76;1133;-63
2023/06/11 06:09:33;;;;;;;;;;;24.20;44.40;;;;;;1549767;76;1928;-61
2023/06/11 06:11:35;;;;;;;;;;;24.10;44.40;;;;;;1554590;75;807;-61
2023/06/11 06:13:37;;;;;;;;;;;24.10;44.40;;;;;;1539107;76;774;-63
2023/06/11 06:15:38;;;;;;;;;;;24.20;44.40;;;;;;1551859;76;1526;-59
2023/06/11 06:17:40;;;;;;;;;;;24.20;44.40;;;;;;1547321;76;1124;-58
2023/06/11 06:19:42;;;;;;;;;;;24.20;44.40;;;;;;1541275;76;664;-59
2023/06/11 06:21:44;;;;;;;;;;;24.20;44.30;;;;;;1547562;76;724;-61
2023/06/11 06:23:46;;;;;;;;;;;24.20;44.30;;;;;;1545963;76;788;-61
2023/06/11 06:25:48;;;;;;;;;;;24.20;44.30;;;;;;1543624;76;847;-58
2023/06/11 06:27:50;;;;;;;;;;;24.20;44.30;;;;;;1540494;76;1130;-59
2023/06/11 06:29:52;;;;;;;;;;;24.20;44.30;;;;;;1549723;76;1931;-60
2023/06/11 06:31:54;;;;;;;;;;;24.10;44.40;;;;;;1539701;76;740;-59
2023/06/11 06:33:56;;;;;;;;;;;24.10;44.40;;;;;;1553301;76;1044;-58
2023/06/11 06:35:58;;;;;;;;;;;24.20;44.30;;;;;;1536668;76;656;-59
2023/06/11 06:38:00;;;;;;;;;;;24.10;44.40;;;;;;1546141;76;1125;-58
2023/06/11 06:40:03;;;;;;;;;;;24.20;44.30;;;;;;1553293;76;749;-59
2023/06/11 06:42:06;;;;;;;;;;;24.20;44.30;;;;;;1552222;76;787;-60
2023/06/11 06:44:08;;;;;;;;;;;24.10;44.30;;;;;;1552506;76;1515;-60
2023/06/11 06:46:10;;;;;;;;;;;24.20;44.40;;;;;;1550005;76;754;-60
2023/06/11 06:48:12;;;;;;;;;;;24.20;44.40;;;;;;1543685;76;1172;-61
2023/06/11 06:50:14;;;;;;;;;;;24.20;44.40;;;;;;1546513;76;1923;-60
2023/06/11 06:52:15;;;;;;;;;;;24.20;44.40;;;;;;1521586;76;1057;-59
2023/06/11 06:54:17;;;;;;;;;;;24.10;44.40;;;;;;1502796;76;746;-60
2023/06/11 06:56:19;;;;;;;;;;;24.10;44.40;;;;;;1500992;76;785;-58
2023/06/11 06:58:21;;;;;;;;;;;24.20;44.40;;;;;;1520648;76;1597;-61
2023/06/11 07:00:23;;;;;;;;;;;24.20;44.40;;;;;;1507323;76;721;-60
2023/06/11 07:02:25;;;;;;;;;;;24.20;44.40;;;;;;1518882;76;774;-59
2023/06/11 07:04:27;;;;;;;;;;;24.20;44.40;;;;;;1503637;76;795;-59
2023/06/11 07:06:29;;;;;;;;;;;24.20;44.40;;;;;;1515914;76;731;-59
2023/06/11 07:08:31;;;;;;;;;;;24.20;44.40;;;;;;1515854;76;1144;-63
2023/06/11 07:10:33;;;;;;;;;;;24.20;44.40;;;;;;1514259;76;1953;-58
2023/06/11 07:12:35;;;;;;;;;;;24.20;44.40;;;;;;1506382;76;1562;-58
2023/06/11 07:14:36;;;;;;;;;;;24.20;44.40;;;;;;1512839;76;734;-59
2023/06/11 07:16:38;;;;;;;;;;;24.20;44.50;;;;;;1520948;77;720;-58
2023/06/11 07:18:40;;;;;;;;;;;24.20;44.50;;;;;;1511294;76;1127;-59
2023/06/11 07:20:42;;;;;;;;;;;24.20;44.40;;;;;;1513240;76;775;-59
2023/06/11 07:22:44;;;;;;;;;;;24.10;44.40;;;;;;1510278;76;684;-58
2023/06/11 07:24:47;;;;;;;;;;;24.20;44.50;;;;;;1519445;76;672;-58
2023/06/11 07:26:49;;;;;;;;;;;24.20;44.40;;;;;;1528839;76;1539;-58
2023/06/11 07:28:51;;;;;;;;;;;24.20;44.40;;;;;;1511414;76;1117;-58
2023/06/11 07:30:54;;;;;;;;;;;24.20;44.40;;;;;;1521646;76;1935;-59
2023/06/11 07:32:56;;;;;;;;;;;24.20;44.40;;;;;;1508533;76;813;-58
2023/06/11 07:34:58;;;;;;;;;;;24.20;44.40;;;;;;1522617;76;746;-59
2023/06/11 07:37:00;;;;;;;;;;;24.20;44.40;;;;;;1510788;76;712;-59
2023/06/11 07:39:02;;;;;;;;;;;24.20;44.40;;;;;;1506950;77;1127;-59
2023/06/11 07:41:04;;;;;;;;;;;24.20;44.40;;;;;;1508525;76;1434;-59
2023/06/11 07:43:06;;;;;;;;;;;24.20;44.40;;;;;;1516010;76;843;-59
2023/06/11 07:45:08;;;;;;;;;;;24.20;44.50;;;;;;1510905;76;703;-58
2023/06/11 07:47:10;;;;;;;;;;;24.20;44.40;;;;;;1496293;76;597;-59
2023/06/11 07:49:12;;;;;;;;;;;24.20;44.40;;;;;;1512752;76;641;-60
2023/06/11 07:51:14;;;;;;;;;;;24.20;44.40;;;;;;1508640;76;1940;-58
2023/06/11 07:53:18;;;;;;;;;;;24.20;44.40;;;;;;1535718;76;735;-58
2023/06/11 07:55:20;;;;;;;;;;;24.20;44.40;;;;;;1545263;76;1540;-60
2023/06/11 07:57:22;;;;;;;;;;;24.20;44.40;;;;;;1543741;76;1210;-59
2023/06/11 07:59:23;;;;;;;;;;;24.20;44.50;;;;;;1535902;76;749;-60
2023/06/11 08:01:25;;;;;;;;;;;24.20;44.50;;;;;;1525277;76;719;-61
2023/06/11 08:03:28;;;;;;;;;;;24.20;44.40;;;;;;1534345;76;743;-60
2023/06/11 08:05:30;;;;;;;;;;;24.20;44.50;;;;;;1536772;76;794;-61
2023/06/11 08:07:32;;;;;;;;;;;24.20;44.50;;;;;;1532183;76;1167;-61
2023/06/11 08:09:35;;;;;;;;;;;24.20;44.50;;;;;;1535612;76;1516;-59
2023/06/11 08:11:37;;;;;;;;;;;24.20;44.50;;;;;;1544414;75;1925;-61
2023/06/11 08:13:40;;;;;;;;;;;24.20;44.50;;;;;;1541610;76;786;-61
2023/06/11 08:15:42;;;;;;;;;;;24.20;44.50;;;;;;1537884;76;799;-59
2023/06/11 08:17:45;;;;;;;;;;;24.20;44.50;;;;;;1530642;76;1183;-59
2023/06/11 08:19:47;;;;;;;;;;;24.20;44.50;;;;;;1533351;76;660;-60
2023/06/11 08:21:49;;;;;;;;;;;24.20;44.50;;;;;;1542524;76;787;-60
2023/06/11 08:23:51;;;;;;;;;;;24.20;44.50;;;;;;1531173;76;1304;-61
2023/06/11 08:25:58;;;;;;;;;;;24.20;44.50;;;;;;1533654;76;739;-57
2023/06/11 08:27:57;;;;;;;;;;;24.20;44.50;;;;;;1547768;76;1599;-58
2023/06/11 08:29:59;;;;;;;;;;;24.20;44.50;;;;;;1529150;76;736;-58
2023/06/11 08:32:01;;;;;;;;;;;24.20;44.40;;;;;;1528785;76;1916;-58
2023/06/11 08:34:03;;;;;;;;;;;24.30;44.60;;;;;;1532556;76;918;-60
2023/06/11 08:36:05;;;;;;;;;;;24.20;44.50;;;;;;1526974;76;701;-60
2023/06/11 08:38:07;;;;;;;;;;;24.20;44.50;;;;;;1534759;76;1107;-63
2023/06/11 08:40:09;;;;;;;;;;;24.20;44.40;;;;;;1541210;76;817;-61
2023/06/11 08:42:11;;;;;;;;;;;24.30;44.50;;;;;;1538432;76;759;-61
2023/06/11 08:44:13;;;;;;;;;;;24.20;44.40;;;;;;1536346;76;787;-61
2023/06/11 08:46:15;;;;;;;;;;;24.20;44.40;;;;;;1511190;76;710;-60
2023/06/11 08:48:18;;;;;;;;;;;24.30;44.40;;;;;;1526710;76;1181;-60
2023/06/11 08:50:25;;;;;;;;;;;24.20;44.40;;;;;;1537329;76;1342;-61
2023/06/11 08:52:25;;;;;;;;;;;24.30;44.50;;;;;;1532752;76;1908;-61
2023/06/11 08:54:27;;;;;;;;;;;24.20;44.40;;;;;;1544071;76;763;-61
2023/06/11 08:56:29;;;;;;;;;;;24.20;44.40;;;;;;1524125;76;736;-63
2023/06/11 08:58:31;;;;;;;;;;;24.20;44.40;;;;;;1539625;76;1194;-61
2023/06/11 09:00:33;;;;;;;;;;;24.30;44.50;;;;;;1533623;76;742;-62
2023/06/11 09:02:35;;;;;;;;;;;24.30;44.50;;;;;;1537690;76;817;-61
2023/06/11 09:04:37;;;;;;;;;;;24.30;44.40;;;;;;1536012;76;1560;-60
2023/06/11 09:06:41;;;;;;;;;;;24.30;44.40;;;;;;1532576;76;726;-63
2023/06/11 09:08:43;;;;;;;;;;;24.30;44.40;;;;;;1545649;76;1828;-60
2023/06/11 09:10:51;;;;;;;;;;;24.30;44.40;;;;;;1543898;75;1928;-64
2023/06/11 09:12:54;;;;;;;;;;;24.30;44.40;;;;;;1544184;76;684;-62
2023/06/11 09:14:56;;;;;;;;;;;24.20;44.30;;;;;;1548755;76;778;-60
2023/06/11 09:16:57;;;;;;;;;;;24.30;44.40;;;;;;1542285;76;807;-62
2023/06/11 09:18:59;;;;;;;;;;;24.30;44.40;;;;;;1528568;76;1570;-61
2023/06/11 09:21:02;;;;;;;;;;;24.30;44.40;;;;;;1541516;76;751;-61
2023/06/11 09:23:04;;;;;;;;;;;24.20;44.30;;;;;;1548977;76;788;-61
2023/06/11 09:25:07;;;;;;;;;;;24.30;44.40;;;;;;1534674;76;705;-61
2023/06/11 09:27:10;;;;;;;;;;;24.30;44.40;;;;;;1530752;76;734;-61
2023/06/11 09:29:11;;;;;;;;;;;24.30;44.40;;;;;;1535239;76;742;-61
2023/06/11 09:31:13;;;;;;;;;;;24.30;44.40;;;;;;1547612;76;1938;-61
2023/06/11 09:33:17;;;;;;;;;;;24.30;44.40;;;;;;1520348;77;1555;-62
2023/06/11 09:35:20;;;;;;;;;;;24.30;44.40;;;;;;1533294;76;924;-61
2023/06/11 09:37:22;;;;;;;;;;;24.30;44.40;;;;;;1542025;76;1162;-63
2023/06/11 09:39:24;;;;;;;;;;;24.40;44.40;;;;;;1538387;76;760;-62
2023/06/11 09:41:27;;;;;;;;;;;24.30;44.40;;;;;;1547762;76;720;-64
2023/06/11 09:43:28;;;;;;;;;;;24.30;44.40;;;;;;1530854;76;715;-61
2023/06/11 09:45:31;;;;;;;;;;;24.20;44.30;;;;;;1522229;76;1195;-62
2023/06/11 09:47:33;;;;;;;;;;;24.20;44.30;;;;;;1539379;76;1341;-61
2023/06/11 09:49:35;;;;;;;;;;;24.30;44.40;;;;;;1555264;76;731;-61
2023/06/11 09:51:37;;;;;;;;;;;24.30;44.40;;;;;;1541478;76;1921;-63
2023/06/11 09:53:38;;;;;;;;;;;24.30;44.40;;;;;;1529674;76;1065;-60
2023/06/11 09:55:40;;;;;;;;;;;24.30;44.40;;;;;;1536008;76;789;-61
2023/06/11 09:57:43;;;;;;;;;;;24.30;44.40;;;;;;1543404;76;1164;-61
2023/06/11 09:59:45;;;;;;;;;;;24.30;44.40;;;;;;1539928;76;720;-60
2023/06/11 10:01:47;;;;;;;;;;;24.30;44.40;;;;;;1543107;76;1490;-60
2023/06/11 10:03:49;;;;;;;;;;;24.30;44.40;;;;;;1527757;76;781;-61
2023/06/11 10:05:51;;;;;;;;;;;24.30;44.30;;;;;;1539878;76;787;-60
2023/06/11 10:07:58;;;;;;;;;;;24.30;44.30;;;;;;1534599;76;1158;-61
2023/06/11 10:09:59;;;;;;;;;;;24.30;44.30;;;;;;1537758;76;768;-61
2023/06/11 10:12:01;;;;;;;;;;;24.30;44.40;;;;;;1535855;75;1948;-61
2023/06/11 10:14:03;;;;;;;;;;;24.30;44.30;;;;;;1544482;76;737;-61
2023/06/11 10:16:07;;;;;;;;;;;24.30;44.30;;;;;;1536882;76;1557;-61
2023/06/11 10:18:14;;;;;;;;;;;24.30;44.30;;;;;;1543521;76;1636;-60
2023/06/11 10:20:17;;;;;;;;;;;24.30;44.30;;;;;;1535799;76;740;-60
2023/06/11 10:22:21;;;;;;;;;;;24.40;44.30;;;;;;1535418;76;739;-62
2023/06/11 10:24:23;;;;;;;;;;;24.30;44.20;;;;;;1542877;76;1089;-61
2023/06/11 10:26:26;;;;;;;;;;;24.30;44.20;;;;;;1538803;76;689;-60
2023/06/11 10:28:36;;;;;;;;;;;24.40;44.20;;;;;;1536198;76;1741;-62
2023/06/11 10:30:38;;;;;;;;;;;24.30;44.20;;;;;;1528983;76;1797;-62
2023/06/11 10:32:53;;;;;;;;;;;24.40;44.20;;;;;;1539350;76;1926;-62
2023/06/11 10:34:55;;;;;;;;;;;24.30;44.20;;;;;;1544804;76;931;-60
2023/06/11 10:36:57;;;;;;;;;;;24.30;44.20;;;;;;1542278;76;726;-61
2023/06/11 10:39:05;;;;;;;;;;;24.40;44.20;;;;;;1518296;76;1129;-61
2023/06/11 10:41:07;;;;;;;;;;;24.30;44.20;;;;;;1537095;76;730;-61
2023/06/11 10:43:13;;;;;;;;;;;24.30;44.20;;;;;;1535183;76;1318;-61
2023/06/11 10:45:15;;;;;;;;;;;24.30;44.20;;;;;;1543433;76;763;-63
2023/06/11 10:47:17;;;;;;;;;;;24.40;44.20;;;;;;1534805;76;1190;-60
2023/06/11 10:49:20;;;;;;;;;;;24.30;44.20;;;;;;1529962;76;672;-61
2023/06/11 10:51:22;;;;;;;;;;;24.40;44.20;;;;;;1536581;76;2135;-60
2023/06/11 10:53:24;;;;;;;;;;;24.40;44.20;;;;;;1540475;75;1124;-62
2023/06/11 10:55:29;;;;;;;;;;;24.40;44.20;;;;;;1532439;77;1015;-61
2023/06/11 10:57:30;;;;;;;;;;;24.30;44.20;;;;;;1551800;76;2287;-61
2023/06/11 10:59:32;;;;;;;;;;;24.40;44.20;;;;;;1554970;75;666;-61
2023/06/11 11:01:34;;;;;;;;;;;24.30;44.20;;;;;;1547186;75;792;-60
2023/06/11 11:03:38;;;;;;;;;;;24.40;44.20;;;;;;1564299;75;782;-61
2023/06/11 11:05:43;;;;;;;;;;;24.40;44.20;;;;;;1524727;75;735;-60
2023/06/11 11:07:45;;;;;;;;;;;24.40;44.10;;;;;;1557210;75;1151;-61
2023/06/11 11:09:47;;;;;;;;;;;24.40;44.10;;;;;;1555283;75;653;-60
2023/06/11 11:11:50;;;;;;;;;;;24.30;44.10;;;;;;1552188;75;1920;-61
2023/06/11 11:13:52;;;;;;;;;;;24.40;44.10;;;;;;1554359;75;734;-60
2023/06/11 11:15:54;;;;;;;;;;;24.40;44.10;;;;;;1557867;75;729;-61
2023/06/11 11:17:56;;;;;;;;;;;24.40;44.10;;;;;;1555607;75;1146;-64
2023/06/11 11:19:58;;;;;;;;;;;24.30;44.00;;;;;;1551600;75;800;-63
2023/06/11 11:22:00;;;;;;;;;;;24.40;44.00;;;;;;1563104;75;785;-62
2023/06/11 11:24:01;;;;;;;;;;;24.30;44.00;;;;;;1555105;76;735;-62
2023/06/11 11:26:04;;;;;;;;;;;24.40;44.00;;;;;;1554009;75;1513;-62
2023/06/11 11:28:06;;;;;;;;;;;24.40;43.90;;;;;;1548641;75;1132;-61
2023/06/11 11:30:09;;;;;;;;;;;24.40;43.90;;;;;;1547002;75;771;-61
2023/06/11 11:32:11;;;;;;;;;;;24.40;43.90;;;;;;1552345;76;1912;-63
2023/06/11 11:34:12;;;;;;;;;;;24.30;43.90;;;;;;1554653;75;619;-60
2023/06/11 11:36:14;;;;;;;;;;;24.40;43.90;;;;;;1552055;75;904;-61
2023/06/11 11:38:17;;;;;;;;;;;24.40;44.00;;;;;;1549951;76;1130;-62
2023/06/11 11:40:19;;;;;;;;;;;24.40;43.90;;;;;;1557402;75;1493;-61
2023/06/11 11:42:24;;;;;;;;;;;24.30;43.90;;;;;;1556077;75;697;-60
2023/06/11 11:44:27;;;;;;;;;;;24.30;43.90;;;;;;1545783;75;671;-61
2023/06/11 11:46:29;;;;;;;;;;;24.30;43.90;;;;;;1561048;75;739;-61
2023/06/11 11:48:32;;;;;;;;;;;24.40;43.90;;;;;;1548982;75;1130;-61
2023/06/11 11:50:34;;;;;;;;;;;24.30;43.90;;;;;;1553113;75;834;-62
2023/06/11 11:52:37;;;;;;;;;;;24.40;43.90;;;;;;1559283;76;1950;-62
2023/06/11 11:54:40;;;;;;;;;;;24.30;43.90;;;;;;1550717;76;1476;-61
2023/06/11 11:56:42;;;;;;;;;;;24.40;43.90;;;;;;1542170;76;714;-62
2023/06/11 11:58:45;;;;;;;;;;;24.40;43.90;;;;;;1553277;76;1166;-61
2023/06/11 12:00:49;;;;;;;;;;;24.30;43.90;;;;;;1540919;76;793;-61
2023/06/11 12:02:51;;;;;;;;;;;24.30;43.90;;;;;;1540606;76;702;-63
2023/06/11 12:04:57;;;;;;;;;;;24.30;43.90;;;;;;1546497;76;790;-61
2023/06/11 12:06:58;;;;;;;;;;;24.30;43.90;;;;;;1502531;76;1584;-62
2023/06/11 12:09:00;;;;;;;;;;;24.40;43.90;;;;;;1549681;76;1851;-61
2023/06/11 12:11:03;;;;;;;;;;;24.30;43.90;;;;;;1559989;75;828;-62